Time,TemperatureF,DewpointF,PressureIn,WindDirection,WindDirectionDegrees,WindSpeedMPH,WindSpeedGustMPH,Humidity,HourlyPrecipIn,Conditions,Clouds,dailyrainin,SoftwareType,DateUTC
2014-09-17 00:04:00,57.4,56.0,29.94,NNE,15,0.0,0.0,95,0.00,,,0.00,Wunderground v.1.15,2014-09-16 23:04:00,
2014-09-17 00:09:00,57.4,56.0,29.94,NNE,15,0.0,0.0,95,0.00,,,0.00,Wunderground v.1.15,2014-09-16 23:09:00,
2014-09-17 00:19:00,57.5,56.1,29.93,NNE,19,0.0,0.0,95,0.00,,,0.00,Wunderground v.1.15,2014-09-16 23:19:00,
2014-09-17 00:29:00,57.6,56.2,29.93,NNE,19,0.0,0.0,95,0.00,,,0.00,Wunderground v.1.15,2014-09-16 23:29:00,
2014-09-17 00:34:00,57.6,56.2,29.93,NNE,19,0.0,0.0,95,0.00,,,0.00,Wunderground v.1.15,2014-09-16 23:34:00,
2014-09-17 00:40:00,57.6,56.2,29.93,NNE,19,0.0,0.0,95,0.00,,,0.00,Wunderground v.1.15,2014-09-16 23:40:00,
2014-09-17 00:50:00,57.6,56.2,29.93,NNE,19,0.0,0.0,95,0.00,,,0.00,Wunderground v.1.15,2014-09-16 23:50:00,
2014-09-17 01:00:00,57.7,56.3,29.93,NNE,19,0.0,0.0,95,0.00,,,0.00,Wunderground v.1.15,2014-09-17 00:00:00,
2014-09-17 01:09:00,57.7,56.3,29.93,NNE,19,0.0,0.0,95,0.00,,,0.00,Wunderground v.1.15,2014-09-17 00:09:00,
2014-09-17 01:15:00,57.7,56.3,29.93,NNE,19,0.0,0.0,95,0.00,,,0.00,Wunderground v.1.15,2014-09-17 00:15:00,
2014-09-17 01:24:00,57.7,56.3,29.93,NNE,19,0.0,0.0,95,0.00,,,0.00,Wunderground v.1.15,2014-09-17 00:24:00,
2014-09-17 01:35:00,57.8,56.4,29.93,NNE,19,0.0,0.0,95,0.33,,,0.06,Wunderground v.1.15,2014-09-17 00:35:00,
2014-09-17 01:44:00,57.9,56.5,29.93,NNE,19,0.0,0.0,95,0.22,,,0.08,Wunderground v.1.15,2014-09-17 00:44:00,
2014-09-17 01:54:00,58.0,56.6,29.93,NNE,19,0.0,0.0,95,0.07,,,0.09,Wunderground v.1.15,2014-09-17 00:54:00,
2014-09-17 02:00:00,58.0,56.6,29.93,NNE,19,0.0,0.0,95,0.05,,,0.09,Wunderground v.1.15,2014-09-17 01:00:00,
2014-09-17 02:09:00,58.1,56.7,29.92,NNE,19,0.0,0.0,95,0.08,,,0.12,Wunderground v.1.15,2014-09-17 01:09:00,
2014-09-17 02:19:00,58.1,56.7,29.92,NNE,19,0.0,0.0,95,0.05,,,0.13,Wunderground v.1.15,2014-09-17 01:19:00,
2014-09-17 02:24:00,58.2,56.8,29.92,NNE,19,0.0,0.0,95,0.08,,,0.13,Wunderground v.1.15,2014-09-17 01:24:00,
2014-09-17 02:34:00,58.2,56.8,29.92,NNE,19,0.0,0.0,95,0.06,,,0.14,Wunderground v.1.15,2014-09-17 01:34:00,
2014-09-17 02:44:00,58.3,56.9,29.92,NNE,19,0.0,0.0,95,0.00,,,0.14,Wunderground v.1.15,2014-09-17 01:44:00,
2014-09-17 02:49:00,58.3,56.9,29.92,NNE,19,0.0,0.0,95,0.00,,,0.14,Wunderground v.1.15,2014-09-17 01:49:00,
2014-09-17 02:59:00,58.4,57.0,29.92,NNE,19,0.0,0.0,95,0.00,,,0.14,Wunderground v.1.15,2014-09-17 01:59:00,
2014-09-17 03:09:00,58.4,57.0,29.92,NNE,19,0.0,0.0,95,0.00,,,0.14,Wunderground v.1.15,2014-09-17 02:09:00,
2014-09-17 03:19:00,58.5,57.4,29.92,NNE,19,0.0,0.0,96,0.00,,,0.14,Wunderground v.1.15,2014-09-17 02:19:00,
2014-09-17 03:29:00,58.5,57.4,29.92,NNE,19,0.0,0.0,96,0.00,,,0.15,Wunderground v.1.15,2014-09-17 02:29:00,
2014-09-17 03:39:00,58.5,57.4,29.91,NNE,19,0.0,0.0,96,0.00,,,0.15,Wunderground v.1.15,2014-09-17 02:39:00,
2014-09-17 03:49:00,58.4,57.3,29.91,NNE,19,0.0,0.0,96,0.00,,,0.15,Wunderground v.1.15,2014-09-17 02:49:00,
2014-09-17 03:59:00,58.3,57.2,29.91,NNE,19,0.0,0.0,96,0.00,,,0.15,Wunderground v.1.15,2014-09-17 02:59:00,
2014-09-17 04:04:00,58.3,57.2,29.91,NNE,19,0.0,0.0,96,0.00,,,0.15,Wunderground v.1.15,2014-09-17 03:04:00,
2014-09-17 04:14:00,58.2,56.8,29.91,NNE,19,0.0,0.0,95,0.00,,,0.15,Wunderground v.1.15,2014-09-17 03:14:00,
2014-09-17 04:24:00,58.0,56.6,29.90,NNE,19,0.0,0.0,95,0.00,,,0.15,Wunderground v.1.15,2014-09-17 03:24:00,
2014-09-17 04:29:00,58.0,56.6,29.90,NNE,19,0.0,0.0,95,0.00,,,0.15,Wunderground v.1.15,2014-09-17 03:29:00,
2014-09-17 04:40:00,57.8,56.4,29.90,NNE,19,0.0,0.0,95,0.00,,,0.15,Wunderground v.1.15,2014-09-17 03:40:00,
2014-09-17 04:45:00,57.7,56.3,29.90,NNE,19,0.0,0.0,95,0.00,,,0.15,Wunderground v.1.15,2014-09-17 03:45:00,
2014-09-17 04:55:00,57.7,56.6,29.90,NNE,19,0.0,0.0,96,0.00,,,0.15,Wunderground v.1.15,2014-09-17 03:55:00,
2014-09-17 05:04:00,57.7,56.6,29.90,NNE,19,0.0,0.0,96,0.00,,,0.15,Wunderground v.1.15,2014-09-17 04:04:00,
2014-09-17 05:10:00,57.7,56.6,29.91,NNE,19,0.0,0.0,96,0.00,,,0.15,Wunderground v.1.15,2014-09-17 04:10:00,
2014-09-17 05:20:00,57.6,56.2,29.90,NNE,19,0.0,0.0,95,0.00,,,0.15,Wunderground v.1.15,2014-09-17 04:20:00,
2014-09-17 05:24:00,57.7,56.6,29.91,NNE,19,0.0,0.0,96,0.00,,,0.15,Wunderground v.1.15,2014-09-17 04:24:00,
2014-09-17 05:30:00,57.6,56.5,29.90,NNE,19,0.0,0.0,96,0.00,,,0.15,Wunderground v.1.15,2014-09-17 04:30:00,
2014-09-17 05:40:00,57.5,56.4,29.90,NNE,19,0.0,0.0,96,0.00,,,0.15,Wunderground v.1.15,2014-09-17 04:40:00,
2014-09-17 05:49:00,57.5,56.4,29.90,NNE,19,0.0,0.0,96,0.00,,,0.15,Wunderground v.1.15,2014-09-17 04:49:00,
2014-09-17 05:59:00,57.5,56.4,29.91,NNE,19,0.0,0.0,96,0.00,,,0.15,Wunderground v.1.15,2014-09-17 04:59:00,
2014-09-17 06:09:00,57.6,56.5,29.91,NNE,19,0.0,0.0,96,0.00,,,0.15,Wunderground v.1.15,2014-09-17 05:09:00,
2014-09-17 06:19:00,57.8,56.7,29.90,NNE,19,0.0,0.0,96,0.00,,,0.15,Wunderground v.1.15,2014-09-17 05:19:00,
2014-09-17 06:29:00,57.8,56.7,29.90,NNE,19,0.0,0.0,96,0.00,,,0.15,Wunderground v.1.15,2014-09-17 05:29:00,
2014-09-17 06:39:00,57.8,56.7,29.91,NNE,19,0.0,0.0,96,0.00,,,0.15,Wunderground v.1.15,2014-09-17 05:39:00,
2014-09-17 06:49:00,57.7,56.6,29.91,NNE,19,0.0,0.0,96,0.00,,,0.15,Wunderground v.1.15,2014-09-17 05:49:00,
2014-09-17 06:59:00,57.6,56.5,29.91,NNE,19,0.0,0.0,96,0.00,,,0.15,Wunderground v.1.15,2014-09-17 05:59:00,
2014-09-17 07:09:00,57.6,56.5,29.91,NNE,19,0.0,0.0,96,0.00,,,0.15,Wunderground v.1.15,2014-09-17 06:09:00,
2014-09-17 07:14:00,57.6,56.5,29.91,NNE,19,0.0,0.0,96,0.00,,,0.15,Wunderground v.1.15,2014-09-17 06:14:00,
2014-09-17 07:24:00,57.6,56.5,29.91,NNE,19,0.0,0.0,96,0.00,,,0.15,Wunderground v.1.15,2014-09-17 06:24:00,
2014-09-17 07:34:00,57.6,56.5,29.91,NNE,19,0.0,0.0,96,0.00,,,0.15,Wunderground v.1.15,2014-09-17 06:34:00,
2014-09-17 07:44:00,57.5,56.4,29.92,NNE,19,0.0,0.0,96,0.00,,,0.15,Wunderground v.1.15,2014-09-17 06:44:00,
2014-09-17 07:54:00,57.5,56.4,29.92,NNE,19,0.0,0.0,96,0.00,,,0.15,Wunderground v.1.15,2014-09-17 06:54:00,
2014-09-17 08:04:00,57.5,56.4,29.92,NNE,19,0.0,0.0,96,0.00,,,0.15,Wunderground v.1.15,2014-09-17 07:04:00,
2014-09-17 08:09:00,57.5,56.4,29.92,NNE,19,0.0,0.0,96,0.00,,,0.15,Wunderground v.1.15,2014-09-17 07:09:00,
2014-09-17 08:19:00,57.7,56.6,29.92,NNE,19,0.0,0.0,96,0.00,,,0.15,Wunderground v.1.15,2014-09-17 07:19:00,
2014-09-17 08:24:00,57.9,56.8,29.92,NNE,19,0.0,0.0,96,0.00,,,0.15,Wunderground v.1.15,2014-09-17 07:24:00,
2014-09-17 08:29:00,58.1,57.3,29.92,NNE,19,0.0,0.0,97,0.00,,,0.15,Wunderground v.1.15,2014-09-17 07:29:00,
2014-09-17 08:40:00,58.3,57.2,29.92,NNE,19,0.0,0.0,96,0.00,,,0.15,Wunderground v.1.15,2014-09-17 07:40:00,
2014-09-17 08:50:00,58.4,57.3,29.92,NNE,19,0.0,0.0,96,0.00,,,0.15,Wunderground v.1.15,2014-09-17 07:50:00,
2014-09-17 09:00:00,58.5,57.4,29.92,ENE,57,0.0,0.0,96,0.00,,,0.15,Wunderground v.1.15,2014-09-17 08:00:00,
2014-09-17 09:09:00,58.6,57.8,29.92,NNE,24,1.0,4.0,97,0.00,,,0.15,Wunderground v.1.15,2014-09-17 08:09:00,
2014-09-17 09:15:00,58.7,57.9,29.92,NNE,24,1.0,4.0,97,0.00,,,0.15,Wunderground v.1.15,2014-09-17 08:15:00,
2014-09-17 09:24:00,58.8,58.0,29.92,NNE,19,0.0,1.0,97,0.00,,,0.15,Wunderground v.1.15,2014-09-17 08:24:00,
2014-09-17 09:35:00,59.0,58.2,29.92,North,5,0.0,3.0,97,0.00,,,0.15,Wunderground v.1.15,2014-09-17 08:35:00,
2014-09-17 09:44:00,59.2,58.3,29.92,NNE,20,1.0,1.0,97,0.00,,,0.15,Wunderground v.1.15,2014-09-17 08:44:00,
2014-09-17 09:54:00,59.6,58.7,29.92,NNE,19,0.0,1.0,97,0.00,,,0.15,Wunderground v.1.15,2014-09-17 08:54:00,
2014-09-17 09:59:00,59.7,58.8,29.92,NNE,19,0.0,0.0,97,0.00,,,0.15,Wunderground v.1.15,2014-09-17 08:59:00,
2014-09-17 10:09:00,59.6,58.7,29.92,NNE,19,1.0,1.0,97,0.00,,,0.15,Wunderground v.1.15,2014-09-17 09:09:00,
2014-09-17 10:19:00,59.8,58.9,29.92,NNE,13,1.0,1.0,97,0.00,,,0.15,Wunderground v.1.15,2014-09-17 09:19:00,
2014-09-17 10:24:00,59.9,59.0,29.92,North,9,1.0,1.0,97,0.00,,,0.15,Wunderground v.1.15,2014-09-17 09:24:00,
2014-09-17 10:34:00,60.0,59.1,29.92,North,11,0.0,1.0,97,0.00,,,0.15,Wunderground v.1.15,2014-09-17 09:34:00,
2014-09-17 10:44:00,60.2,59.3,29.91,NNE,16,1.0,2.0,97,0.00,,,0.15,Wunderground v.1.15,2014-09-17 09:44:00,
2014-09-17 10:49:00,60.3,59.4,29.91,NNE,15,1.0,1.0,97,0.00,,,0.15,Wunderground v.1.15,2014-09-17 09:49:00,
2014-09-17 10:59:00,60.4,59.5,29.91,NE,53,2.0,5.0,97,0.00,,,0.15,Wunderground v.1.15,2014-09-17 09:59:00,
2014-09-17 11:09:00,60.3,59.4,29.91,NNW,338,2.0,2.0,97,0.00,,,0.15,Wunderground v.1.15,2014-09-17 10:09:00,
2014-09-17 11:19:00,60.5,59.6,29.91,NE,39,2.0,2.0,97,0.00,,,0.15,Wunderground v.1.15,2014-09-17 10:19:00,
2014-09-17 11:29:00,60.6,59.7,29.91,NNW,328,1.0,5.0,97,0.00,,,0.15,Wunderground v.1.15,2014-09-17 10:29:00,
2014-09-17 11:39:00,60.4,59.3,29.91,North,355,2.0,2.0,96,0.00,,,0.15,Wunderground v.1.15,2014-09-17 10:39:00,
2014-09-17 11:49:00,60.4,59.3,29.91,NNE,30,1.0,3.0,96,0.00,,,0.15,Wunderground v.1.15,2014-09-17 10:49:00,
2014-09-17 11:59:00,60.5,59.4,29.91,NNE,15,2.0,2.0,96,0.00,,,0.15,Wunderground v.1.15,2014-09-17 10:59:00,
2014-09-17 12:04:00,60.3,59.2,29.91,North,9,2.0,2.0,96,0.00,,,0.15,Wunderground v.1.15,2014-09-17 11:04:00,
2014-09-17 12:14:00,60.3,59.2,29.91,NNE,30,1.0,6.0,96,0.00,,,0.15,Wunderground v.1.15,2014-09-17 11:14:00,
2014-09-17 12:24:00,60.3,59.2,29.90,North,360,2.0,4.0,96,0.00,,,0.15,Wunderground v.1.15,2014-09-17 11:24:00,
2014-09-17 12:29:00,60.3,59.2,29.90,North,5,2.0,4.0,96,0.00,,,0.15,Wunderground v.1.15,2014-09-17 11:29:00,
2014-09-17 12:35:00,60.4,59.3,29.90,NNE,13,2.0,4.0,96,0.00,,,0.15,Wunderground v.1.15,2014-09-17 11:35:00,
2014-09-17 12:45:00,60.6,59.2,29.90,North,9,2.0,3.0,95,0.00,,,0.15,Wunderground v.1.15,2014-09-17 11:45:00,
2014-09-17 12:55:00,60.7,59.3,29.90,NNW,331,3.0,5.0,95,0.00,,,0.15,Wunderground v.1.15,2014-09-17 11:55:00,
2014-09-17 13:04:00,60.9,59.5,29.90,NNE,16,2.0,4.0,95,0.00,,,0.15,Wunderground v.1.15,2014-09-17 12:04:00,
2014-09-17 13:10:00,61.1,59.4,29.90,NNE,22,2.0,2.0,94,0.00,,,0.15,Wunderground v.1.15,2014-09-17 12:10:00,